createdAt,value
2019-06-15T00:00:20.987Z,100321.75
2019-06-15T00:02:49.386Z,100321.87
2019-06-15T00:05:17.796Z,100312.63
2019-06-15T00:07:46.214Z,100302.88
2019-06-15T00:10:14.705Z,100303.32
2019-06-15T00:12:43.209Z,100296.84
2019-06-15T00:15:11.934Z,100286.58
2019-06-15T00:17:40.350Z,100274.52
2019-06-15T00:20:09.122Z,100271.00
2019-06-15T00:22:37.523Z,100268.45
2019-06-15T00:25:08.996Z,100268.48
2019-06-15T00:27:37.413Z,100272.48
2019-06-15T00:30:10.885Z,100263.45
2019-06-15T00:32:39.384Z,100255.70
2019-06-15T00:35:11.233Z,100260.38
2019-06-15T00:37:39.660Z,100258.33
2019-06-15T00:40:08.713Z,100258.30
2019-06-15T00:42:37.144Z,100248.30
2019-06-15T00:45:06.383Z,100239.75
2019-06-15T00:47:34.798Z,100228.19
2019-06-15T00:50:03.383Z,100218.30
2019-06-15T00:52:31.799Z,100215.91
2019-06-15T00:55:00.216Z,100211.56
2019-06-15T00:57:28.632Z,100205.23
2019-06-15T00:59:57.040Z,100204.05
2019-06-15T01:02:25.566Z,100195.64
2019-06-15T01:04:53.985Z,100192.64
2019-06-15T01:07:22.408Z,100183.72
2019-06-15T01:09:50.817Z,100172.83
2019-06-15T01:12:19.239Z,100162.77
2019-06-15T01:14:47.651Z,100157.74
2019-06-15T01:17:16.073Z,100153.05
2019-06-15T01:19:44.497Z,100150.20
2019-06-15T01:22:12.918Z,100155.02
2019-06-15T01:24:41.338Z,100158.41
2019-06-15T01:27:12.558Z,100152.70
2019-06-15T01:29:41.039Z,100154.42
2019-06-15T01:32:09.493Z,100145.86
2019-06-15T01:34:37.922Z,100130.94
2019-06-15T01:37:06.365Z,100121.52
2019-06-15T01:39:34.775Z,100120.47
2019-06-15T01:42:03.358Z,100113.77
2019-06-15T01:44:31.768Z,100109.26
2019-06-15T01:47:00.203Z,100106.22
2019-06-15T01:49:28.614Z,100094.09
2019-06-15T01:51:57.035Z,100090.73
2019-06-15T01:54:25.454Z,100091.70
2019-06-15T01:56:53.876Z,100084.59
2019-06-15T01:59:22.280Z,100090.89
2019-06-15T02:02:01.203Z,100100.84
2019-06-15T02:04:29.621Z,100108.78
2019-06-15T02:06:58.199Z,100104.14
2019-06-15T02:09:26.664Z,100109.46
2019-06-15T02:11:55.308Z,100111.10
2019-06-15T02:14:23.716Z,100109.83
2019-06-15T02:16:52.186Z,100108.36
2019-06-15T02:19:22.114Z,100098.97
2019-06-15T02:21:50.520Z,100113.98
2019-06-15T02:24:21.779Z,100125.28
2019-06-15T02:26:52.303Z,100143.88
2019-06-15T02:29:26.264Z,100168.09
2019-06-15T02:31:54.694Z,100179.53
2019-06-15T02:34:23.112Z,100182.62
2019-06-15T02:36:51.523Z,100197.24
2019-06-15T02:39:19.975Z,100204.09
2019-06-15T02:41:48.962Z,100215.12
2019-06-15T02:44:17.711Z,100227.69
2019-06-15T02:46:46.496Z,100228.87
2019-06-15T02:49:14.915Z,100212.42
2019-06-15T02:51:43.345Z,100209.52
2019-06-15T02:54:11.780Z,100206.27
2019-06-15T02:56:40.199Z,100197.94
2019-06-15T02:59:08.643Z,100164.45
2019-06-15T03:01:37.051Z,100152.78
2019-06-15T03:04:05.663Z,100148.24
2019-06-15T03:06:34.440Z,100126.16
2019-06-15T03:09:03.218Z,100118.80
2019-06-15T03:11:31.673Z,100115.44
2019-06-15T03:14:00.457Z,100097.31
2019-06-15T03:16:28.885Z,100073.50
2019-06-15T03:18:57.395Z,100077.66
2019-06-15T03:21:25.837Z,100075.72
2019-06-15T03:23:54.286Z,100081.92
2019-06-15T03:26:22.694Z,100093.81
2019-06-15T03:28:51.123Z,100093.63
2019-06-15T03:31:19.540Z,100086.45
2019-06-15T03:33:48.011Z,100060.31
2019-06-15T03:36:16.422Z,100033.50
2019-06-15T03:38:44.853Z,99992.66
2019-06-15T03:41:13.272Z,99978.60
2019-06-15T03:43:41.735Z,99968.08
2019-06-15T03:46:10.139Z,99954.80
2019-06-15T03:48:38.581Z,99962.63
2019-06-15T03:51:07.053Z,99971.30
2019-06-15T03:53:35.503Z,99972.45
2019-06-15T03:56:03.951Z,99991.53
2019-06-15T03:58:32.405Z,100013.95
2019-06-15T04:01:12.399Z,100008.77
2019-06-15T04:03:40.830Z,99999.88
2019-06-15T04:06:09.272Z,99998.47
2019-06-15T04:08:37.691Z,99990.49
2019-06-15T04:11:06.115Z,99979.27
2019-06-15T04:13:34.529Z,99969.59
2019-06-15T04:16:02.967Z,99975.11
2019-06-15T04:18:31.410Z,99988.33
2019-06-15T04:21:00.095Z,100015.12
2019-06-15T04:23:28.511Z,100039.72
2019-06-15T04:25:56.957Z,100024.81
2019-06-15T04:28:25.376Z,100012.77
2019-06-15T04:30:53.801Z,99955.48
2019-06-15T04:33:22.219Z,99898.20
2019-06-15T04:35:50.703Z,99856.03
2019-06-15T04:38:20.692Z,99840.97
2019-06-15T04:40:49.112Z,99869.38
2019-06-15T04:43:17.579Z,99911.00
2019-06-15T04:45:46.025Z,99971.11
2019-06-15T04:48:14.510Z,99982.89
2019-06-15T04:50:42.953Z,99986.95
2019-06-15T04:53:11.397Z,100030.13
2019-06-15T04:55:39.865Z,100024.15
2019-06-15T04:58:08.313Z,100014.45
2019-06-15T05:00:36.768Z,100002.22
2019-06-15T05:03:05.280Z,99988.61
2019-06-15T05:05:33.912Z,99979.03
2019-06-15T05:08:02.394Z,99965.15
2019-06-15T05:10:30.825Z,99952.47
2019-06-15T05:12:59.249Z,99943.09
2019-06-15T05:15:27.723Z,99940.10
2019-06-15T05:17:56.195Z,99931.72
2019-06-15T05:20:24.659Z,99957.34
2019-06-15T05:22:53.174Z,99953.81
2019-06-15T05:25:21.604Z,99962.72
2019-06-15T05:27:51.829Z,99948.33
2019-06-15T05:30:20.371Z,99934.23
2019-06-15T05:32:48.841Z,99917.00
2019-06-15T05:35:17.455Z,99905.30
2019-06-15T05:37:45.940Z,99896.45
2019-06-15T05:40:17.873Z,99884.23
2019-06-15T05:42:48.091Z,99870.17
2019-06-15T05:45:18.447Z,99867.84
2019-06-15T05:47:46.878Z,99854.61
2019-06-15T05:50:15.687Z,99844.72
2019-06-15T05:52:44.121Z,99838.66
2019-06-15T05:55:13.114Z,99835.63
2019-06-15T05:57:41.576Z,99831.97
2019-06-15T06:00:11.941Z,99830.08
2019-06-15T06:02:47.178Z,99845.29
2019-06-15T06:05:20.969Z,99838.75
2019-06-15T06:07:49.291Z,99830.04
2019-06-15T06:10:17.862Z,99843.28
2019-06-15T06:12:46.295Z,99839.38
2019-06-15T06:15:16.070Z,99840.87
2019-06-15T06:17:44.517Z,99844.00
2019-06-15T06:20:13.176Z,99850.48
2019-06-15T06:22:41.606Z,99850.44
2019-06-15T06:25:12.668Z,99856.09
2019-06-15T06:27:41.144Z,99856.53
2019-06-15T06:30:11.139Z,99857.73
2019-06-15T06:32:39.627Z,99853.59
2019-06-15T06:35:08.819Z,99856.78
2019-06-15T06:37:37.258Z,99856.39
2019-06-15T06:40:08.922Z,99861.28
2019-06-15T06:42:38.122Z,99854.73
2019-06-15T06:45:18.358Z,99845.30
2019-06-15T06:47:46.829Z,99850.06
2019-06-15T06:50:15.796Z,99849.48
2019-06-15T06:52:44.258Z,99842.80
2019-06-15T06:55:13.726Z,99833.80
2019-06-15T06:57:52.367Z,99832.84
2019-06-15T07:00:14.033Z,99828.08
2019-06-15T07:02:42.462Z,99836.91
2019-06-15T07:05:12.251Z,99846.80
2019-06-15T07:07:40.672Z,99854.23
2019-06-15T07:10:10.135Z,99857.28
2019-06-15T07:12:38.583Z,99857.28
2019-06-15T07:15:07.612Z,99851.97
2019-06-15T07:17:36.281Z,99860.50
2019-06-15T07:20:07.082Z,99867.20
2019-06-15T07:22:35.509Z,99877.01
2019-06-15T07:25:05.998Z,99878.80
2019-06-15T07:27:34.455Z,99870.72
2019-06-15T07:30:03.941Z,99868.41
2019-06-15T07:32:32.357Z,99877.52
2019-06-15T07:35:00.789Z,99880.39
2019-06-15T07:37:29.234Z,99871.52
2019-06-15T07:39:57.642Z,99877.50
2019-06-15T07:42:26.101Z,99887.36
2019-06-15T07:44:54.576Z,99875.47
2019-06-15T07:47:23.030Z,99867.48
2019-06-15T07:49:51.489Z,99865.20
2019-06-15T07:52:19.890Z,99882.11
2019-06-15T07:54:49.910Z,99886.53
2019-06-15T07:57:18.351Z,99873.63
2019-06-15T07:59:47.061Z,99878.23
2019-06-15T08:02:15.530Z,99878.77
2019-06-15T08:04:43.936Z,99876.77
2019-06-15T08:07:12.437Z,99880.95
2019-06-15T08:09:40.880Z,99877.36
2019-06-15T08:12:09.336Z,99871.84
2019-06-15T08:14:37.767Z,99866.90
2019-06-15T08:17:06.285Z,99870.84
2019-06-15T08:19:34.687Z,99863.84
2019-06-15T08:22:03.188Z,99866.06
2019-06-15T08:24:31.679Z,99860.85
2019-06-15T08:27:00.099Z,99861.41
2019-06-15T08:29:28.557Z,99862.31
2019-06-15T08:31:56.990Z,99869.12
2019-06-15T08:34:25.428Z,99869.34
2019-06-15T08:36:53.892Z,99884.61
2019-06-15T08:39:22.323Z,99878.30
2019-06-15T08:41:50.744Z,99873.29
2019-06-15T08:44:19.178Z,99878.77
2019-06-15T08:46:47.608Z,99876.19
2019-06-15T08:49:16.030Z,99882.27
2019-06-15T08:51:44.452Z,99880.41
2019-06-15T08:54:12.907Z,99889.73
2019-06-15T08:56:41.332Z,99887.41
2019-06-15T08:59:09.805Z,99887.55
2019-06-15T09:01:38.219Z,99891.29
2019-06-15T09:04:06.652Z,99895.71
2019-06-15T09:06:35.069Z,99898.94
2019-06-15T09:09:04.144Z,99898.77
2019-06-15T09:11:32.593Z,99907.34
2019-06-15T09:14:01.289Z,99908.30
2019-06-15T09:16:29.725Z,99899.41
2019-06-15T09:18:58.178Z,99913.03
2019-06-15T09:21:29.629Z,99916.75
2019-06-15T09:23:58.031Z,99908.53
2019-06-15T09:26:26.456Z,99916.94
2019-06-15T09:29:09.998Z,99924.20
2019-06-15T09:31:26.830Z,99918.26
2019-06-15T09:33:55.248Z,99920.30
2019-06-15T09:36:23.680Z,99919.64
2019-06-15T09:38:56.643Z,99926.34
2019-06-15T09:41:25.066Z,99939.84
2019-06-15T09:43:53.488Z,99953.29
2019-06-15T09:46:21.954Z,99951.73
2019-06-15T09:48:50.364Z,99956.53
2019-06-15T09:51:18.786Z,99958.50
2019-06-15T09:53:47.204Z,99958.86
2019-06-15T09:56:15.627Z,99961.20
2019-06-15T09:58:44.056Z,99966.72
2019-06-15T10:01:12.488Z,99969.22
2019-06-15T10:03:40.916Z,99973.13
2019-06-15T10:06:11.770Z,99976.53
2019-06-15T10:08:39.712Z,99971.88
2019-06-15T10:11:08.192Z,99975.11
2019-06-15T10:13:36.600Z,99977.88
2019-06-15T10:16:19.130Z,99978.34
2019-06-15T10:18:38.635Z,99978.91
2019-06-15T10:21:05.658Z,99977.90
2019-06-15T10:23:34.065Z,99980.86
2019-06-15T10:26:02.480Z,99999.19
2019-06-15T10:28:30.942Z,99991.13
2019-06-15T10:31:00.827Z,99998.33
2019-06-15T10:33:29.486Z,99992.22
2019-06-15T10:35:57.868Z,100000.33
2019-06-15T10:38:26.307Z,100000.73
2019-06-15T10:40:54.728Z,99997.39
2019-06-15T10:43:23.183Z,100003.63
2019-06-15T10:45:51.591Z,100006.36
2019-06-15T10:48:20.108Z,100010.00
2019-06-15T10:50:48.611Z,100024.36
2019-06-15T10:53:17.221Z,100025.92
2019-06-15T10:55:45.674Z,100033.20
2019-06-15T10:58:14.098Z,100038.00
2019-06-15T11:00:51.080Z,100038.84
2019-06-15T11:03:19.434Z,100049.51
2019-06-15T11:05:47.873Z,100058.31
2019-06-15T11:08:16.338Z,100057.44
2019-06-15T11:10:47.809Z,100077.05
2019-06-15T11:13:16.438Z,100081.72
2019-06-15T11:15:44.869Z,100089.48
2019-06-15T11:18:13.369Z,100090.27
2019-06-15T11:20:46.729Z,100105.47
2019-06-15T11:23:15.190Z,100109.67
2019-06-15T11:25:43.651Z,100118.66
2019-06-15T11:28:13.018Z,100124.62
2019-06-15T11:30:45.941Z,100126.58
2019-06-15T11:33:17.282Z,100129.91
2019-06-15T11:35:48.849Z,100142.66
2019-06-15T11:38:17.312Z,100140.95
2019-06-15T11:40:45.915Z,100148.70
2019-06-15T11:43:16.983Z,100154.63
2019-06-15T11:45:48.331Z,100158.36
2019-06-15T11:48:16.827Z,100156.58
2019-06-15T11:50:45.209Z,100156.15
2019-06-15T11:53:15.310Z,100169.35
2019-06-15T11:55:45.251Z,100168.38
2019-06-15T11:58:13.688Z,100166.61
2019-06-15T12:00:42.383Z,100172.86
2019-06-15T12:03:10.846Z,100181.47
2019-06-15T12:05:39.279Z,100188.88
2019-06-15T12:08:07.713Z,100190.16
2019-06-15T12:10:36.150Z,100201.53
2019-06-15T12:13:04.598Z,100201.86
2019-06-15T12:15:33.016Z,100205.69
2019-06-15T12:18:01.457Z,100195.22
2019-06-15T12:20:29.908Z,100201.11
2019-06-15T12:22:58.420Z,100218.52
2019-06-15T12:25:26.861Z,100214.91
2019-06-15T12:27:55.486Z,100217.96
2019-06-15T12:30:29.721Z,100236.87
2019-06-15T12:32:58.305Z,100237.89
2019-06-15T12:35:29.916Z,100241.80
2019-06-15T12:37:58.386Z,100249.69
2019-06-15T12:40:26.888Z,100250.87
2019-06-15T12:42:55.291Z,100253.75
2019-06-15T12:45:23.888Z,100256.54
2019-06-15T12:47:53.076Z,100257.34
2019-06-15T12:50:21.562Z,100258.09
2019-06-15T12:52:50.007Z,100255.08
2019-06-15T12:55:18.512Z,100267.09
2019-06-15T12:57:46.944Z,100269.57
2019-06-15T13:00:16.117Z,100277.30
2019-06-15T13:02:44.517Z,100284.17
2019-06-15T13:05:13.250Z,100289.94
2019-06-15T13:07:41.720Z,100287.89
2019-06-15T13:10:10.443Z,100288.83
2019-06-15T13:12:38.872Z,100291.45
2019-06-15T13:15:08.756Z,100291.42
2019-06-15T13:17:37.165Z,100287.17
2019-06-15T13:20:08.508Z,100301.27
2019-06-15T13:22:36.943Z,100309.61
2019-06-15T13:25:08.664Z,100299.91
2019-06-15T13:27:37.073Z,100319.19
2019-06-15T13:30:06.851Z,100320.61
2019-06-15T13:32:35.261Z,100318.00
2019-06-15T13:35:05.567Z,100321.75
2019-06-15T13:37:42.159Z,100318.98
2019-06-15T13:40:06.388Z,100324.55
2019-06-15T13:42:34.831Z,100324.35
2019-06-15T13:45:05.017Z,100332.22
2019-06-15T13:47:33.419Z,100334.20
2019-06-15T13:50:01.926Z,100334.40
2019-06-15T13:52:30.306Z,100329.28
2019-06-15T13:54:58.781Z,100335.64
2019-06-15T13:57:27.197Z,100338.36
2019-06-15T13:59:55.638Z,100336.70
2019-06-15T14:02:24.059Z,100344.10
2019-06-15T14:04:52.485Z,100342.84
2019-06-15T14:07:20.908Z,100346.50
2019-06-15T14:09:49.328Z,100344.67
2019-06-15T14:12:17.751Z,100350.49
2019-06-15T14:14:46.179Z,100343.45
2019-06-15T14:17:17.381Z,100343.55
2019-06-15T14:19:45.794Z,100338.56
2019-06-15T14:22:14.222Z,100340.75
2019-06-15T14:24:42.648Z,100340.73
2019-06-15T14:27:11.061Z,100331.37
2019-06-15T14:29:39.503Z,100337.42
2019-06-15T14:32:17.323Z,100332.72
2019-06-15T14:34:56.144Z,100333.98
2019-06-15T14:37:30.682Z,100331.89
2019-06-15T14:40:04.850Z,100325.91
2019-06-15T14:42:30.945Z,100325.09
2019-06-15T14:44:59.400Z,100323.72
2019-06-15T14:47:27.855Z,100329.20
2019-06-15T14:49:56.264Z,100324.06
2019-06-15T14:52:29.367Z,100320.73
2019-06-15T14:54:57.951Z,100321.70
2019-06-15T14:57:27.049Z,100328.05
2019-06-15T15:00:04.428Z,100330.89
2019-06-15T15:02:26.382Z,100334.81
2019-06-15T15:04:56.537Z,100324.41
2019-06-15T15:07:26.357Z,100331.58
2019-06-15T15:09:56.681Z,100341.45
2019-06-15T15:12:26.559Z,100327.55
2019-06-15T15:14:56.530Z,100345.23
2019-06-15T15:17:26.967Z,100368.30
2019-06-15T15:19:57.414Z,100366.27
2019-06-15T15:22:26.744Z,100371.05
2019-06-15T15:24:56.170Z,100372.70
2019-06-15T15:27:27.066Z,100371.77
2019-06-15T15:29:56.988Z,100361.99
2019-06-15T15:32:30.518Z,100365.00
2019-06-15T15:34:56.017Z,100367.69
2019-06-15T15:37:26.882Z,100355.95
2019-06-15T15:39:56.516Z,100359.94
2019-06-15T15:42:26.758Z,100364.45
2019-06-15T15:44:56.585Z,100369.19
2019-06-15T15:47:27.245Z,100380.72
2019-06-15T15:49:57.603Z,100385.27
2019-06-15T15:52:26.923Z,100385.99
2019-06-15T15:54:56.536Z,100385.02
2019-06-15T15:57:26.518Z,100390.00
2019-06-15T15:59:56.344Z,100384.55
2019-06-15T16:02:35.696Z,100383.86
2019-06-15T16:04:57.874Z,100387.86
2019-06-15T16:07:27.799Z,100403.59
2019-06-15T16:09:56.501Z,100393.72
2019-06-15T16:12:25.007Z,100403.69
2019-06-15T16:14:53.483Z,100414.05
2019-06-15T16:17:21.908Z,100412.38
2019-06-15T16:19:50.329Z,100410.78
2019-06-15T16:22:18.797Z,100409.95
2019-06-15T16:24:48.084Z,100417.38
2019-06-15T16:27:21.906Z,100413.61
2019-06-15T16:29:51.854Z,100419.28
2019-06-15T16:32:21.937Z,100422.34
2019-06-15T16:34:50.373Z,100429.00
2019-06-15T16:37:18.851Z,100430.23
2019-06-15T16:39:47.291Z,100429.52
2019-06-15T16:42:15.733Z,100439.02
2019-06-15T16:44:46.796Z,100445.92
2019-06-15T16:47:16.686Z,100453.41
2019-06-15T16:49:46.482Z,100451.23
2019-06-15T16:52:27.050Z,100455.48
2019-06-15T16:54:55.486Z,100464.72
2019-06-15T16:57:23.902Z,100474.20
2019-06-15T16:59:52.321Z,100470.02
2019-06-15T17:02:20.772Z,100467.46
2019-06-15T17:04:49.199Z,100469.84
2019-06-15T17:07:17.619Z,100473.11
2019-06-15T17:09:46.592Z,100487.73
2019-06-15T17:12:16.852Z,100487.16
2019-06-15T17:14:45.172Z,100491.48
2019-06-15T17:17:13.604Z,100488.55
2019-06-15T17:19:42.044Z,100503.48
2019-06-15T17:22:18.605Z,100497.78
2019-06-15T17:24:50.095Z,100509.24
2019-06-15T17:27:19.967Z,100508.56
2019-06-15T17:29:46.920Z,100512.59
2019-06-15T17:32:17.034Z,100517.92
2019-06-15T17:34:46.927Z,100523.02
2019-06-15T17:37:17.275Z,100518.38
2019-06-15T17:39:46.634Z,100521.69
2019-06-15T17:42:16.383Z,100520.52
2019-06-15T17:44:46.200Z,100521.34
2019-06-15T17:47:16.897Z,100527.00
2019-06-15T17:49:46.856Z,100529.41
2019-06-15T17:52:16.872Z,100531.07
2019-06-15T17:54:46.666Z,100535.83
2019-06-15T17:57:15.241Z,100536.58
2019-06-15T17:59:43.678Z,100538.11
2019-06-15T18:02:12.076Z,100528.42
2019-06-15T18:04:42.940Z,100531.33
2019-06-15T18:07:16.786Z,100537.27
2019-06-15T18:09:46.608Z,100549.63
2019-06-15T18:12:16.309Z,100545.09
2019-06-15T18:14:46.502Z,100549.98
2019-06-15T18:17:17.190Z,100545.27
2019-06-15T18:19:46.956Z,100548.78
2019-06-15T18:22:17.054Z,100548.06
2019-06-15T18:24:46.659Z,100546.48
2019-06-15T18:27:16.910Z,100548.85
2019-06-15T18:29:46.460Z,100551.81
2019-06-15T18:32:17.091Z,100557.00
2019-06-15T18:34:46.491Z,100562.78
2019-06-15T18:37:17.113Z,100564.64
2019-06-15T18:39:46.754Z,100566.20
2019-06-15T18:42:16.932Z,100570.23
2019-06-15T18:44:47.942Z,100561.89
2019-06-15T18:47:16.875Z,100564.60
2019-06-15T18:49:47.394Z,100567.81
2019-06-15T18:52:20.006Z,100572.17
2019-06-15T18:54:50.041Z,100575.52
2019-06-15T18:57:21.314Z,100580.55
2019-06-15T18:59:49.815Z,100585.08
2019-06-15T19:02:22.558Z,100578.67
2019-06-15T19:04:52.882Z,100582.67
2019-06-15T19:07:26.989Z,100585.55
2019-06-15T19:09:56.040Z,100596.41
2019-06-15T19:12:26.378Z,100595.14
2019-06-15T19:14:56.172Z,100589.27
2019-06-15T19:17:24.641Z,100588.87
2019-06-15T19:19:57.213Z,100595.70
2019-06-15T19:22:27.116Z,100607.44
2019-06-15T19:24:57.092Z,100602.40
2019-06-15T19:27:26.008Z,100593.69
2019-06-15T19:29:56.504Z,100594.36
2019-06-15T19:32:26.309Z,100600.73
2019-06-15T19:34:56.889Z,100604.64
2019-06-15T19:37:27.247Z,100609.03
2019-06-15T19:39:58.361Z,100613.02
2019-06-15T19:42:26.824Z,100609.89
2019-06-15T19:44:56.236Z,100607.44
2019-06-15T19:47:26.517Z,100605.77
2019-06-15T19:49:56.839Z,100613.11
2019-06-15T19:52:25.358Z,100608.73
2019-06-15T19:55:01.235Z,100599.00
2019-06-15T19:57:29.658Z,100603.80
2019-06-15T19:59:58.229Z,100611.59
2019-06-15T20:02:27.080Z,100620.86
2019-06-15T20:05:11.049Z,100621.23
2019-06-15T20:07:42.774Z,100620.05
2019-06-15T20:10:11.888Z,100626.60
2019-06-15T20:12:48.777Z,100627.52
2019-06-15T20:15:26.807Z,100625.98
2019-06-15T20:17:56.956Z,100625.08
2019-06-15T20:20:26.690Z,100625.68
2019-06-15T20:22:56.108Z,100627.20
2019-06-15T20:25:26.698Z,100633.48
2019-06-15T20:27:56.358Z,100634.03
2019-06-15T20:30:24.933Z,100638.02
2019-06-15T20:32:53.435Z,100639.68
2019-06-15T20:35:21.841Z,100640.66
2019-06-15T20:37:59.340Z,100646.67
2019-06-15T20:40:27.746Z,100650.69
2019-06-15T20:42:56.617Z,100649.45
2019-06-15T20:45:26.809Z,100651.56
2019-06-15T20:48:01.186Z,100656.19
2019-06-15T20:50:29.596Z,100658.49
2019-06-15T20:52:59.724Z,100663.91
2019-06-15T20:55:28.122Z,100657.66
2019-06-15T20:57:57.031Z,100660.51
2019-06-15T21:00:26.342Z,100668.00
2019-06-15T21:02:56.277Z,100665.25
2019-06-15T21:05:38.957Z,100665.75
2019-06-15T21:08:02.526Z,100668.73
2019-06-15T21:10:30.903Z,100665.28
2019-06-15T21:12:59.591Z,100672.16
2019-06-15T21:15:31.093Z,100673.31
2019-06-15T21:18:01.349Z,100676.55
2019-06-15T21:20:29.791Z,100676.48
2019-06-15T21:22:58.216Z,100679.45
2019-06-15T21:25:26.658Z,100674.14
2019-06-15T21:27:56.740Z,100679.16
2019-06-15T21:30:27.078Z,100681.70
2019-06-15T21:32:57.784Z,100685.25
2019-06-15T21:35:26.711Z,100693.51
2019-06-15T21:37:57.232Z,100697.53
2019-06-15T21:40:27.543Z,100708.10
2019-06-15T21:42:57.663Z,100704.43
2019-06-15T21:45:27.742Z,100702.27
2019-06-15T21:48:01.916Z,100708.44
2019-06-15T21:50:30.315Z,100718.73
2019-06-15T21:52:59.646Z,100727.45
2019-06-15T21:55:28.070Z,100726.94
2019-06-15T21:57:59.283Z,100741.13
2019-06-15T22:00:48.631Z,100745.98
2019-06-15T22:03:17.151Z,100750.34
2019-06-15T22:06:02.724Z,100743.66
2019-06-15T22:08:21.375Z,100757.94
2019-06-15T22:10:49.797Z,100759.97
2019-06-15T22:13:18.230Z,100759.76
2019-06-15T22:15:46.823Z,100757.71
2019-06-15T22:18:16.367Z,100757.17
2019-06-15T22:20:47.133Z,100760.59
2019-06-15T22:23:16.249Z,100757.89
2019-06-15T22:25:46.489Z,100754.63
2019-06-15T22:28:16.491Z,100755.84
2019-06-15T22:30:46.154Z,100748.52
2019-06-15T22:33:16.477Z,100748.21
2019-06-15T22:35:47.283Z,100746.38
2019-06-15T22:38:15.203Z,100747.38
2019-06-15T22:40:43.639Z,100748.59
2019-06-15T22:43:12.067Z,100751.30
2019-06-15T22:45:40.505Z,100762.30
2019-06-15T22:48:08.985Z,100756.83
2019-06-15T22:50:37.412Z,100763.08
2019-06-15T22:53:07.274Z,100759.84
2019-06-15T22:55:36.958Z,100764.47
2019-06-15T22:58:06.509Z,100777.98
2019-06-15T23:00:37.407Z,100778.94
2019-06-15T23:03:06.283Z,100784.72
2019-06-15T23:05:35.085Z,100789.56
2019-06-15T23:08:03.519Z,100787.23
2019-06-15T23:10:31.959Z,100789.84
2019-06-15T23:13:00.369Z,100789.63
2019-06-15T23:15:28.810Z,100782.44
2019-06-15T23:17:57.348Z,100794.27
2019-06-15T23:20:26.977Z,100795.59
2019-06-15T23:22:56.082Z,100799.26
2019-06-15T23:25:27.252Z,100802.92
2019-06-15T23:27:56.334Z,100807.88
2019-06-15T23:30:24.818Z,100809.61
2019-06-15T23:32:56.038Z,100809.77
2019-06-15T23:35:26.165Z,100802.89
2019-06-15T23:37:55.933Z,100800.72
2019-06-15T23:40:26.919Z,100801.11
2019-06-15T23:42:56.588Z,100813.90
2019-06-15T23:45:26.784Z,100818.63
2019-06-15T23:47:57.486Z,100818.22
2019-06-15T23:50:26.357Z,100817.77
2019-06-15T23:52:55.001Z,100823.87
2019-06-15T23:55:23.412Z,100831.34
2019-06-15T23:57:51.834Z,100835.52
